createdAt,value
2023-02-12T00:01:41.593Z,52.60
2023-02-12T00:04:09.871Z,53.40
2023-02-12T00:06:39.323Z,55.60
2023-02-12T00:09:07.653Z,49.30
2023-02-12T00:11:36.138Z,49.50
2023-02-12T00:14:05.882Z,59.40
2023-02-12T00:16:34.427Z,50.20
2023-02-12T00:19:03.013Z,47.10
2023-02-12T00:21:31.389Z,49.60
2023-02-12T00:23:59.872Z,44.60
2023-02-12T00:26:28.152Z,48.80
2023-02-12T00:28:56.648Z,47.60
2023-02-12T00:31:30.387Z,52.40
2023-02-12T00:34:00.349Z,47.40
2023-02-12T00:36:30.833Z,49.80
2023-02-12T00:38:59.365Z,49.60
2023-02-12T00:41:28.150Z,48.10
2023-02-12T00:43:56.853Z,49.50
2023-02-12T00:46:25.283Z,48.10
2023-02-12T00:48:53.594Z,51.10
2023-02-12T00:51:24.074Z,47.90
2023-02-12T00:53:52.918Z,47.80
2023-02-12T00:56:21.436Z,49.40
2023-02-12T00:58:51.109Z,50.60
2023-02-12T01:01:19.763Z,52.70
2023-02-12T01:03:48.176Z,52.20
2023-02-12T01:06:16.459Z,53.10
2023-02-12T01:08:44.831Z,47.60
2023-02-12T01:11:14.443Z,49.10
2023-02-12T01:13:42.815Z,44.10
2023-02-12T01:16:16.686Z,46.10
2023-02-12T01:18:45.720Z,48.30
2023-02-12T01:21:23.621Z,43.50
2023-02-12T01:23:51.799Z,46.50
2023-02-12T01:26:21.788Z,44.00
2023-02-12T01:28:55.465Z,41.20
2023-02-12T01:31:26.840Z,43.00
2023-02-12T01:33:57.484Z,45.70
2023-02-12T01:36:27.105Z,47.70
2023-02-12T01:38:56.340Z,45.10
2023-02-12T01:41:31.587Z,42.10
2023-02-12T01:44:24.522Z,45.70
2023-02-12T01:46:59.230Z,45.60
2023-02-12T01:49:40.855Z,41.60
2023-02-12T01:52:16.365Z,47.00
2023-02-12T01:54:44.849Z,44.30
2023-02-12T01:57:14.761Z,45.80
2023-02-12T01:59:45.584Z,44.20
2023-02-12T02:02:14.487Z,58.00
2023-02-12T02:04:50.757Z,68.00
2023-02-12T02:07:19.236Z,66.40
2023-02-12T02:09:48.024Z,54.30
2023-02-12T02:12:35.551Z,52.60
2023-02-12T02:15:06.491Z,48.30
2023-02-12T02:17:53.537Z,48.60
2023-02-12T02:20:45.844Z,49.60
2023-02-12T02:23:23.335Z,49.90
2023-02-12T02:25:54.458Z,51.90
2023-02-12T02:28:31.576Z,47.30
2023-02-12T02:31:10.096Z,45.30
2023-02-12T02:34:22.797Z,45.60
2023-02-12T02:37:08.736Z,45.50
2023-02-12T02:40:12.307Z,42.50
2023-02-12T02:42:48.956Z,46.70
2023-02-12T02:45:43.133Z,45.00
2023-02-12T02:48:17.573Z,46.00
2023-02-12T02:50:51.842Z,46.20
2023-02-12T02:53:45.445Z,45.70
2023-02-12T02:56:18.036Z,45.30
2023-02-12T02:59:04.956Z,47.60
2023-02-12T03:01:55.170Z,46.50
2023-02-12T03:04:44.212Z,47.60
2023-02-12T03:07:26.511Z,47.70
2023-02-12T03:10:01.807Z,47.10
2023-02-12T03:12:43.956Z,45.70
2023-02-12T03:15:23.085Z,45.40
2023-02-12T03:17:51.757Z,49.20
2023-02-12T03:20:24.862Z,49.70
2023-02-12T03:22:58.648Z,48.10
2023-02-12T03:25:42.722Z,49.00
2023-02-12T03:28:17.560Z,50.80
2023-02-12T03:31:01.440Z,49.80
2023-02-12T03:33:53.127Z,51.80
2023-02-12T03:36:34.636Z,53.30
2023-02-12T03:39:33.601Z,51.30
2023-02-12T03:42:14.678Z,48.10
2023-02-12T03:44:53.102Z,51.70
2023-02-12T03:47:27.985Z,55.00
2023-02-12T03:50:03.604Z,51.80
2023-02-12T03:52:31.956Z,51.60
2023-02-12T03:55:00.582Z,52.00
2023-02-12T03:57:35.358Z,48.20
2023-02-12T04:00:08.012Z,47.80
2023-02-12T04:02:43.590Z,45.90
2023-02-12T04:05:20.404Z,45.00
2023-02-12T04:07:50.178Z,49.10
2023-02-12T04:10:21.425Z,49.30
2023-02-12T04:12:54.655Z,48.50
2023-02-12T04:15:54.376Z,46.70
2023-02-12T04:18:41.445Z,50.40
2023-02-12T04:21:44.975Z,44.10
2023-02-12T04:24:23.671Z,47.00
2023-02-12T04:27:05.059Z,48.40
2023-02-12T04:30:04.263Z,47.60
2023-02-12T04:32:46.971Z,50.60
2023-02-12T04:35:24.568Z,53.10
2023-02-12T04:38:15.279Z,52.00
2023-02-12T04:40:44.470Z,50.10
2023-02-12T04:43:12.954Z,49.00
2023-02-12T04:45:41.375Z,51.50
2023-02-12T04:48:10.837Z,55.80
2023-02-12T04:50:42.406Z,60.00
2023-02-12T04:53:11.698Z,55.00
2023-02-12T04:55:39.883Z,55.20
2023-02-12T04:58:08.450Z,57.40
2023-02-12T05:00:36.944Z,53.60
2023-02-12T05:03:05.111Z,56.10
2023-02-12T05:05:33.496Z,60.30
2023-02-12T05:08:01.764Z,62.10
2023-02-12T05:10:29.940Z,62.50
2023-02-12T05:12:58.322Z,56.20
2023-02-12T05:15:26.856Z,132.30
2023-02-12T05:17:55.278Z,174.00
2023-02-12T05:20:23.664Z,56.80
2023-02-12T05:22:53.778Z,54.00
2023-02-12T05:25:22.165Z,132.90
2023-02-12T05:27:50.538Z,53.50
2023-02-12T05:30:18.914Z,50.30
2023-02-12T05:32:47.091Z,66.00
2023-02-12T05:35:15.471Z,56.20
2023-02-12T05:37:43.846Z,55.10
2023-02-12T05:40:12.942Z,125.70
2023-02-12T05:42:41.323Z,153.80
2023-02-12T05:45:10.114Z,62.30
2023-02-12T05:47:38.392Z,92.00
2023-02-12T05:50:07.687Z,146.90
2023-02-12T05:52:35.759Z,183.70
2023-02-12T05:55:04.489Z,188.50
2023-02-12T05:57:32.720Z,142.60
2023-02-12T06:00:01.113Z,127.50
2023-02-12T06:02:40.773Z,94.00
2023-02-12T06:05:09.434Z,156.60
2023-02-12T06:07:37.923Z,220.80
2023-02-12T06:10:07.108Z,211.20
2023-02-12T06:12:35.387Z,228.60
2023-02-12T06:15:04.280Z,206.10
2023-02-12T06:17:34.291Z,130.90
2023-02-12T06:20:03.117Z,87.50
2023-02-12T06:22:31.565Z,150.80
2023-02-12T06:24:59.817Z,150.80
2023-02-12T06:27:28.832Z,119.00
2023-02-12T06:29:57.008Z,150.00
2023-02-12T06:32:25.800Z,87.60
2023-02-12T06:34:54.078Z,132.60
2023-02-12T06:37:22.166Z,160.60
2023-02-12T06:39:51.075Z,187.00
2023-02-12T06:42:20.036Z,167.10
2023-02-12T06:44:48.685Z,76.90
2023-02-12T06:47:18.126Z,68.30
2023-02-12T06:49:46.502Z,101.60
2023-02-12T06:52:14.987Z,64.50
2023-02-12T06:54:43.398Z,63.90
2023-02-12T06:57:11.847Z,59.10
2023-02-12T06:59:40.063Z,99.00
2023-02-12T07:02:10.586Z,125.10
2023-02-12T07:04:39.543Z,179.90
2023-02-12T07:07:08.029Z,111.20
2023-02-12T07:09:36.306Z,62.10
2023-02-12T07:12:04.688Z,98.20
2023-02-12T07:14:33.273Z,76.10
2023-02-12T07:17:03.995Z,67.90
2023-02-12T07:19:32.276Z,108.50
2023-02-12T07:22:00.755Z,89.90
2023-02-12T07:24:30.137Z,65.10
2023-02-12T07:26:58.438Z,152.70
2023-02-12T07:29:26.609Z,174.30
2023-02-12T07:31:55.211Z,135.70
2023-02-12T07:34:23.778Z,131.60
2023-02-12T07:36:52.057Z,166.60
2023-02-12T07:39:20.230Z,192.60
2023-02-12T07:41:48.406Z,101.20
2023-02-12T07:44:16.987Z,75.60
2023-02-12T07:46:48.587Z,116.60
2023-02-12T07:49:19.788Z,112.60
2023-02-12T07:51:49.883Z,108.90
2023-02-12T07:54:18.492Z,140.50
2023-02-12T07:56:47.527Z,89.40
2023-02-12T07:59:19.328Z,153.20
2023-02-12T08:01:52.385Z,82.60
2023-02-12T08:04:24.641Z,78.80
2023-02-12T08:06:55.345Z,55.60
2023-02-12T08:09:31.023Z,64.00
2023-02-12T08:11:59.619Z,78.90
2023-02-12T08:14:29.065Z,93.80
2023-02-12T08:16:57.514Z,145.20
2023-02-12T08:19:26.881Z,72.00
2023-02-12T08:21:56.780Z,176.80
2023-02-12T08:24:25.474Z,135.70
2023-02-12T08:26:54.145Z,51.50
2023-02-12T08:29:25.881Z,66.90
2023-02-12T08:31:59.894Z,77.40
2023-02-12T08:34:32.259Z,61.50
2023-02-12T08:37:01.366Z,104.90
2023-02-12T08:39:30.388Z,54.40
2023-02-12T08:42:00.416Z,43.00
2023-02-12T08:44:29.390Z,72.50
2023-02-12T08:46:57.682Z,67.90
2023-02-12T08:49:29.968Z,50.50
2023-02-12T08:52:00.052Z,158.50
2023-02-12T08:54:30.739Z,100.90
2023-02-12T08:57:01.609Z,72.20
2023-02-12T08:59:30.518Z,68.50
2023-02-12T09:01:58.615Z,78.30
2023-02-12T09:04:28.405Z,62.40
2023-02-12T09:06:56.586Z,78.70
2023-02-12T09:09:24.750Z,98.00
2023-02-12T09:11:53.127Z,51.70
2023-02-12T09:14:25.149Z,43.70
2023-02-12T09:16:55.368Z,58.40
2023-02-12T09:19:26.353Z,49.60
2023-02-12T09:21:56.966Z,56.90
2023-02-12T09:24:27.983Z,44.60
2023-02-12T09:26:57.341Z,76.90
2023-02-12T09:29:25.614Z,45.80
2023-02-12T09:31:54.236Z,77.70
2023-02-12T09:34:22.669Z,45.30
2023-02-12T09:36:51.159Z,53.50
2023-02-12T09:39:19.844Z,89.30
2023-02-12T09:41:56.517Z,103.30
2023-02-12T09:44:42.913Z,35.40
2023-02-12T09:47:15.682Z,54.80
2023-02-12T09:49:55.860Z,83.80
2023-02-12T09:52:28.029Z,40.90
2023-02-12T09:54:57.116Z,52.70
2023-02-12T09:57:33.642Z,46.10
2023-02-12T10:00:14.992Z,83.90
2023-02-12T10:02:43.558Z,60.30
2023-02-12T10:05:19.024Z,49.50
2023-02-12T10:08:20.627Z,38.30
2023-02-12T10:11:01.130Z,57.20
2023-02-12T10:14:03.195Z,27.60
2023-02-12T10:16:43.564Z,80.80
2023-02-12T10:19:24.222Z,89.70
2023-02-12T10:22:07.837Z,112.50
2023-02-12T10:24:49.678Z,56.00
2023-02-12T10:27:32.581Z,59.80
2023-02-12T10:30:04.031Z,59.70
2023-02-12T10:32:35.853Z,65.10
2023-02-12T10:35:13.841Z,106.70
2023-02-12T10:37:58.559Z,135.30
2023-02-12T10:40:32.790Z,30.90
2023-02-12T10:43:03.144Z,67.50
2023-02-12T10:45:34.960Z,40.20
2023-02-12T10:48:13.872Z,59.90
2023-02-12T10:51:00.374Z,75.20
2023-02-12T10:53:35.005Z,112.80
2023-02-12T10:56:13.519Z,45.70
2023-02-12T10:58:51.223Z,61.80
2023-02-12T11:01:28.771Z,123.20
